Edward J. Moran — WDC9891 — position and weather

sailwx.info

Track history (hours):
 
Tides and Currents Weather Stations Pressure Air Temp Water Temp Dewpoint Dewpoint Depression Visibility Wind Speed Wind Dir Waves Ship Positions

Edward J. Moran

Owner: Moran Towing Corporation, New Canaan, CT. More information available from US FCC via Universal Licensing System and Coast Guard Vessel Documentation Center.

Last reported at 2018-Jul-22 16:29 UTC. Time now 2018-Jul-22 16:37 UTC.
Position N 32°05' W 081°04'.

; draft 5.4 m.

Type: Tug. MMSI: 367108030.

Date/timePositionNaut miles runAvg speedWind from/ knotsBaromVisibWave heightAir tempDewpointWater temp
2018-Jul-22 16:29N 32°05' W 081°04'0 0.0
2018-Jul-22 16:00N 32°05' W 081°04'4 4.2
2018-Jul-22 15:00N 32°07' W 081°08'1 1.7
2018-Jul-22 14:30N 32°08' W 081°08'1 2.7
2018-Jul-22 14:00N 32°07' W 081°08'2 5.1
2018-Jul-22 13:30N 32°05' W 081°06'1 2.9
2018-Jul-22 13:00N 32°05' W 081°04'0 0.0
2018-Jul-22 12:30N 32°05' W 081°04'0 0.0
2018-Jul-22 12:00N 32°05' W 081°04'4 8.6
2018-Jul-22 11:30N 32°07' W 081°08'1 1.9
2018-Jul-22 11:00N 32°08' W 081°09'0 0.2
2018-Jul-22 10:30N 32°08' W 081°08'1 2.4
2018-Jul-22 10:00N 32°07' W 081°08'2 4.5
2018-Jul-22 09:30N 32°05' W 081°06'3 5.6
2018-Jul-22 09:00N 32°05' W 081°03'3 6.7
2018-Jul-22 08:30N 32°05' W 080°59'1 2.4
2018-Jul-22 08:00N 32°06' W 080°60'4 7.6
2018-Jul-22 07:30N 32°05' W 081°04'0 0.4
2018-Jul-22 07:00N 32°05' W 081°04'0 0.0
2018-Jul-22 06:30N 32°05' W 081°04'0 0.0
2018-Jul-22 06:00N 32°05' W 081°04'0 0.0
2018-Jul-22 05:30N 32°05' W 081°04'0 0.0
2018-Jul-22 04:59N 32°05' W 081°04'0 0.0
2018-Jul-22 04:29N 32°05' W 081°04'0 0.0
2018-Jul-22 04:00N 32°05' W 081°04'0 0.0
2018-Jul-22 03:30N 32°05' W 081°04'0 0.0
2018-Jul-22 03:00N 32°05' W 081°04'0 0.0
2018-Jul-22 02:30N 32°05' W 081°04'0 0.0
2018-Jul-22 01:59N 32°05' W 081°04'0 0.0
2018-Jul-22 01:30N 32°05' W 081°04'0 0.0
2018-Jul-22 01:00N 32°05' W 081°04'0 0.0
2018-Jul-22 00:30N 32°05' W 081°04'4 8.2
2018-Jul-22 00:00N 32°07' W 081°08'1 2.7
2018-Jul-21 23:30N 32°08' W 081°09'0 0.6
2018-Jul-21 23:00N 32°08' W 081°08'1 2.4
2018-Jul-21 22:30N 32°07' W 081°08'3 4.8
2018-Jul-21 21:59N 32°05' W 081°06'2 3.6
2018-Jul-21 21:30N 32°05' W 081°04'0 0.0
2018-Jul-21 20:59N 32°05' W 081°04'0 0.8
2018-Jul-21 20:30N 32°05' W 081°04'2 4.2
2018-Jul-21 20:00N 32°06' W 081°06'2 3.3
2018-Jul-21 19:30N 32°07' W 081°08'1 2.7
2018-Jul-21 19:00N 32°08' W 081°09'0 0.5
2018-Jul-21 18:28N 32°08' W 081°09'1 3.0
2018-Jul-21 18:00N 32°07' W 081°08'4 8.3
2018-Jul-21 17:30N 32°05' W 081°04'0 0.4
2018-Jul-21 16:56N 32°05' W 081°04'0 0.0
2018-Jul-21 16:30N 32°05' W 081°04'0 0.0
2018-Jul-21 16:00N 32°05' W 081°04'0 0.0
2018-Jul-21 15:30N 32°05' W 081°04'0 0.0
2018-Jul-21 15:00N 32°05' W 081°04'0 0.0
2018-Jul-21 14:30N 32°05' W 081°04'0 0.0
2018-Jul-21 13:30N 32°05' W 081°04'0 0.0
2018-Jul-21 13:00N 32°05' W 081°04'0 0.0
2018-Jul-21 12:30N 32°05' W 081°04'3 5.4
2018-Jul-21 12:00N 32°06' W 081°07'2 4.7
2018-Jul-21 11:30N 32°08' W 081°08'1 1.4
2018-Jul-21 11:00N 32°07' W 081°08'0 0.1
2018-Jul-21 10:29N 32°07' W 081°08'0 0.0
2018-Jul-21 10:00N 32°07' W 081°08'0 0.0
2018-Jul-21 09:30N 32°07' W 081°08'0 0.0
2018-Jul-21 09:00N 32°07' W 081°08'0 0.0
2018-Jul-21 08:30N 32°07' W 081°08'0 0.9
2018-Jul-21 08:00N 32°07' W 081°08'0 0.8
2018-Jul-21 07:30N 32°07' W 081°08'0 0.3
2018-Jul-21 06:59N 32°07' W 081°08'0 0.0
2018-Jul-21 06:30N 32°07' W 081°08'0 0.0
2018-Jul-21 06:00N 32°07' W 081°08'0 0.0
2018-Jul-21 05:30N 32°07' W 081°08'0 0.0
2018-Jul-21 05:00N 32°07' W 081°08'0 0.0
2018-Jul-21 04:30N 32°07' W 081°08'0 0.0
2018-Jul-21 04:00N 32°07' W 081°08'0 0.0
2018-Jul-21 03:30N 32°07' W 081°08'1 1.1
2018-Jul-21 03:00N 32°08' W 081°08'0 0.1
2018-Jul-21 02:30N 32°08' W 081°08'0 0.4
2018-Jul-21 02:00N 32°08' W 081°08'1 2.9
2018-Jul-21 01:30N 32°06' W 081°07'3 5.8
2018-Jul-21 01:00N 32°05' W 081°04'0 0.6
2018-Jul-21 00:29N 32°05' W 081°04'0 0.0
2018-Jul-21 00:00N 32°05' W 081°04'0 0.0
2018-Jul-20 23:30N 32°05' W 081°04'0 0.0
2018-Jul-20 22:58N 32°05' W 081°04'0 0.0
2018-Jul-20 22:28N 32°05' W 081°04'2 4.2
2018-Jul-20 22:00N 32°05' W 081°06'3 5.5
2018-Jul-20 21:30N 32°08' W 081°08'1 1.7
2018-Jul-20 21:00N 32°07' W 081°08'3 7.0
2018-Jul-20 20:30N 32°05' W 081°04'0 0.6
2018-Jul-20 20:00N 32°05' W 081°04'0 0.0
2018-Jul-20 19:30N 32°05' W 081°04'0 0.0
2018-Jul-20 19:00N 32°05' W 081°04'0 0.0
2018-Jul-20 18:30N 32°05' W 081°04'0 0.0
2018-Jul-20 18:00N 32°05' W 081°04'0 0.0
2018-Jul-20 17:30N 32°05' W 081°04'0 0.0
2018-Jul-20 16:51N 32°05' W 081°04'0 0.0
2018-Jul-20 16:30N 32°05' W 081°04'0 0.0
2018-Jul-20 16:00N 32°05' W 081°04'0 0.0
2018-Jul-20 15:30N 32°05' W 081°04'0 0.0
2018-Jul-20 15:00N 32°05' W 081°04'0 0.0
2018-Jul-20 14:30N 32°05' W 081°04'0 0.0
2018-Jul-20 14:00N 32°05' W 081°04'0 0.0
2018-Jul-20 13:30N 32°05' W 081°04'0 0.0
2018-Jul-20 13:00N 32°05' W 081°04'0 0.0
2018-Jul-20 12:30N 32°05' W 081°04'0 0.0
2018-Jul-20 12:00N 32°05' W 081°04'0 0.0
2018-Jul-20 11:30N 32°05' W 081°04'0 0.0
2018-Jul-20 11:00N 32°05' W 081°04'0 0.0
2018-Jul-20 10:28N 32°05' W 081°04'0 0.0
2018-Jul-20 09:59N 32°05' W 081°04'0 0.0
2018-Jul-20 09:30N 32°05' W 081°04'0 0.0
2018-Jul-20 08:57N 32°05' W 081°04'0 0.0
2018-Jul-20 08:30N 32°05' W 081°04'0 0.0
2018-Jul-20 08:00N 32°05' W 081°04'0 0.0
2018-Jul-20 07:30N 32°05' W 081°04'0 0.0
2018-Jul-20 07:00N 32°05' W 081°04'0 0.0
2018-Jul-20 06:30N 32°05' W 081°04'0 0.0
2018-Jul-20 06:00N 32°05' W 081°04'0 0.0
2018-Jul-20 05:30N 32°05' W 081°04'0 0.0
2018-Jul-20 04:56N 32°05' W 081°04'0 0.0
2018-Jul-20 04:28N 32°05' W 081°04'0 0.0
2018-Jul-20 04:00N 32°05' W 081°04'0 0.0
2018-Jul-20 03:30N 32°05' W 081°04'0 0.0
2018-Jul-20 03:00N 32°05' W 081°04'0 0.0
2018-Jul-20 02:30N 32°05' W 081°04'0 0.0
2018-Jul-20 02:00N 32°05' W 081°04'0 0.0
2018-Jul-20 01:30N 32°05' W 081°04'0 0.0
2018-Jul-20 01:00N 32°05' W 081°04'0 0.0
2018-Jul-20 00:29N 32°05' W 081°04'0 0.0
2018-Jul-19 13:52N 32°05' W 081°04'0 0.0
2018-Jul-19 13:30N 32°05' W 081°04'0 0.0
2018-Jul-19 13:00N 32°05' W 081°04'0 0.0
2018-Jul-19 12:30N 32°05' W 081°04'0 0.0
2018-Jul-19 12:00N 32°05' W 081°04'0 0.0
2018-Jul-19 11:30N 32°05' W 081°04'0 0.3
2018-Jul-19 11:00N 32°05' W 081°04'1 2.8
2018-Jul-19 10:30N 32°05' W 081°05'2 4.4
2018-Jul-19 10:01N 32°07' W 081°07'2 4.3
2018-Jul-19 09:30N 32°08' W 081°09'0 0.1
2018-Jul-19 09:00N 32°08' W 081°09'3 5.5
2018-Jul-19 08:30N 32°06' W 081°07'3 5.6
2018-Jul-19 08:00N 32°05' W 081°04'0 0.4
2018-Jul-19 07:30N 32°05' W 081°04'0 0.0
2018-Jul-19 07:00N 32°05' W 081°04'0 0.0
2018-Jul-19 06:30N 32°05' W 081°04'0 0.0
2018-Jul-19 06:00N 32°05' W 081°04'0 0.0
2018-Jul-19 05:30N 32°05' W 081°04'0 0.0
2018-Jul-19 05:00N 32°05' W 081°04'0 0.0
2018-Jul-19 04:30N 32°05' W 081°04'0 0.0
2018-Jul-19 04:00N 32°05' W 081°04'0 0.0
2018-Jul-19 03:30N 32°05' W 081°04'0 0.0
2018-Jul-19 03:00N 32°05' W 081°04'0 0.0
2018-Jul-19 02:30N 32°05' W 081°04'0 0.0
2018-Jul-19 02:00N 32°05' W 081°04'0 0.0
2018-Jul-19 01:30N 32°05' W 081°04'0 0.0
2018-Jul-19 01:00N 32°05' W 081°04'0 0.0
2018-Jul-19 00:30N 32°05' W 081°04'0 0.0
2018-Jul-19 00:00N 32°05' W 081°04'0 0.0
2018-Jul-18 23:30N 32°05' W 081°04'0 0.0
2018-Jul-18 23:00N 32°05' W 081°04'0 0.0
2018-Jul-18 22:30N 32°05' W 081°04'0 0.0
2018-Jul-18 22:00N 32°05' W 081°04'0 0.0
2018-Jul-18 21:30N 32°05' W 081°04'0 0.0
2018-Jul-18 21:00N 32°05' W 081°04'0 0.0
2018-Jul-18 20:30N 32°05' W 081°04'1 1.8
2018-Jul-18 20:00N 32°05' W 081°05'4 8.4
2018-Jul-18 19:30N 32°08' W 081°08'0 0.5
2018-Jul-18 19:00N 32°08' W 081°09'1 1.4
2018-Jul-18 18:30N 32°07' W 081°08'2 4.1
2018-Jul-18 18:00N 32°06' W 081°07'1 1.8
2018-Jul-18 17:30N 32°05' W 081°06'0 0.0
2018-Jul-18 17:00N 32°05' W 081°06'0 0.0
2018-Jul-18 16:30N 32°05' W 081°06'0 0.0
2018-Jul-18 16:00N 32°05' W 081°06'1 1.3
2018-Jul-18 15:30N 32°06' W 081°06'2 4.3
2018-Jul-18 15:00N 32°07' W 081°08'0 0.0
2018-Jul-18 14:30N 32°07' W 081°08'0 0.2
2018-Jul-18 13:30N 32°07' W 081°08'0 0.0
2018-Jul-18 13:00N 32°07' W 081°08'0 0.0
2018-Jul-18 12:29N 32°07' W 081°08'1 1.2
2018-Jul-18 12:00N 32°08' W 081°08'0 0.1
2018-Jul-18 11:30N 32°08' W 081°08'0 0.2
2018-Jul-18 10:26N 32°08' W 081°08'0 0.1
2018-Jul-18 10:00N 32°08' W 081°08'0 0.7
2018-Jul-18 09:30N 32°08' W 081°08'2 3.5
2018-Jul-18 09:00N 32°06' W 081°07'1 2.1
2018-Jul-18 08:30N 32°05' W 081°06'0 0.0
2018-Jul-18 08:00N 32°05' W 081°06'1 2.7
2018-Jul-18 07:30N 32°06' W 081°07'1 2.8
2018-Jul-18 07:00N 32°05' W 081°06'1 2.9
2018-Jul-18 06:30N 32°05' W 081°04'0 0.9
2018-Jul-18 05:56N 32°05' W 081°04'0 0.0
2018-Jul-18 05:25N 32°05' W 081°04'0 0.0
2018-Jul-18 05:00N 32°05' W 081°04'0 0.0
2018-Jul-18 04:27N 32°05' W 081°04'0 0.0
2018-Jul-18 03:57N 32°05' W 081°04'0 0.0
2018-Jul-18 03:30N 32°05' W 081°04'0 0.0
2018-Jul-18 03:00N 32°05' W 081°04'0 0.0
2018-Jul-18 02:30N 32°05' W 081°04'0 0.0
2018-Jul-18 02:00N 32°05' W 081°04'0 0.0
2018-Jul-18 01:30N 32°05' W 081°04'0 0.0
2018-Jul-18 01:00N 32°05' W 081°04'0 0.0
2018-Jul-18 00:27N 32°05' W 081°04'0 0.0
2018-Jul-18 00:00N 32°05' W 081°04'0 0.0
2018-Jul-17 23:29N 32°05' W 081°04'0 0.0
2018-Jul-17 23:00N 32°05' W 081°04'0 0.0
2018-Jul-17 22:26N 32°05' W 081°04'0 0.0
2018-Jul-17 22:00N 32°05' W 081°04'0 0.0
2018-Jul-17 21:30N 32°05' W 081°04'0 0.0
2018-Jul-17 20:57N 32°05' W 081°04'0 0.0
2018-Jul-17 20:30N 32°05' W 081°04'0 0.0
2018-Jul-17 20:00N 32°05' W 081°04'2 4.3
2018-Jul-17 19:30N 32°06' W 081°06'3 6.6
2018-Jul-17 19:00N 32°08' W 081°09'0 0.1
2018-Jul-17 18:30N 32°08' W 081°09'1 1.7
2018-Jul-17 18:00N 32°08' W 081°08'2 4.3
2018-Jul-17 17:30N 32°06' W 081°07'1 2.0
2018-Jul-17 17:00N 32°07' W 081°07'1 1.7
2018-Jul-17 16:30N 32°07' W 081°08'0 1.0
2018-Jul-17 16:00N 32°08' W 081°08'1 1.8
2018-Jul-17 15:30N 32°07' W 081°08'2 4.7
2018-Jul-17 14:59N 32°05' W 081°06'2 3.3
2018-Jul-17 14:30N 32°05' W 081°04'0 0.0
2018-Jul-17 14:00N 32°05' W 081°04'0 0.0
2018-Jul-17 13:30N 32°05' W 081°04'0 0.0
2018-Jul-17 13:00N 32°05' W 081°04'0 0.0
2018-Jul-17 12:30N 32°05' W 081°04'0 0.0
2018-Jul-17 12:00N 32°05' W 081°04'0 0.0
2018-Jul-17 11:30N 32°05' W 081°04'3 5.2
2018-Jul-17 11:00N 32°06' W 081°07'2 3.9
2018-Jul-17 10:30N 32°07' W 081°08'0 0.8
2018-Jul-17 10:00N 32°07' W 081°08'1 2.0
2018-Jul-17 09:29N 32°06' W 081°07'0 0.7
2018-Jul-17 09:00N 32°06' W 081°07'1 1.8
2018-Jul-17 08:30N 32°05' W 081°06'2 3.9
2018-Jul-17 08:00N 32°05' W 081°04'0 0.0
2018-Jul-17 07:24N 32°05' W 081°04'0 0.0
2018-Jul-17 07:00N 32°05' W 081°04'0 0.0
2018-Jul-17 06:30N 32°05' W 081°04'0 0.0
2018-Jul-17 06:00N 32°05' W 081°04'0 0.0
2018-Jul-17 05:30N 32°05' W 081°04'0 0.0
2018-Jul-17 04:55N 32°05' W 081°04'0 0.0
2018-Jul-17 04:30N 32°05' W 081°04'0 0.0
2018-Jul-17 04:00N 32°05' W 081°04'0 0.0
2018-Jul-17 03:30N 32°05' W 081°04'0 0.0
2018-Jul-17 03:00N 32°05' W 081°04'0 0.0
2018-Jul-17 02:30N 32°05' W 081°04'0 0.0
2018-Jul-17 01:59N 32°05' W 081°04'0 0.0
2018-Jul-17 01:29N 32°05' W 081°04'0 0.0
2018-Jul-17 01:00N 32°05' W 081°04'0 0.0
2018-Jul-17 00:30N 32°05' W 081°04'0 0.0
2018-Jul-16 23:30N 32°05' W 081°04'0 0.0
2018-Jul-16 23:00N 32°05' W 081°04'0 0.0
2018-Jul-16 22:28N 32°05' W 081°04'0 0.0
2018-Jul-16 22:00N 32°05' W 081°04'0 0.0
2018-Jul-16 21:31N 32°05' W 081°04'4 8.5
2018-Jul-16 21:00N 32°07' W 081°08'0 0.4
2018-Jul-16 20:28N 32°07' W 081°08'1 2.9
2018-Jul-16 19:59N 32°06' W 081°07'1 2.1
2018-Jul-16 19:30N 32°07' W 081°08'1 1.5
2018-Jul-16 19:00N 32°07' W 081°08'0 0.4
2018-Jul-16 18:30N 32°08' W 081°08'0 0.1
2018-Jul-16 18:00N 32°08' W 081°08'1 1.7
2018-Jul-16 17:30N 32°07' W 081°08'2 4.2
2018-Jul-16 17:00N 32°05' W 081°06'2 2.7
2018-Jul-16 16:20N 32°05' W 081°04'0 0.0
2018-Jul-16 15:54N 32°05' W 081°04'0 0.0
2018-Jul-16 15:30N 32°05' W 081°04'1 1.4
2018-Jul-16 15:00N 32°05' W 081°05'3 5.4
2018-Jul-16 14:30N 32°06' W 081°07'2 3.6
2018-Jul-16 14:00N 32°08' W 081°08'1 1.1
2018-Jul-16 13:30N 32°08' W 081°09'0 0.0
2018-Jul-16 13:00N 32°08' W 081°09'4 8.4
2018-Jul-16 12:30N 32°05' W 081°06'1 3.0
2018-Jul-16 12:00N 32°05' W 081°04'0 0.0
2018-Jul-16 11:30N 32°05' W 081°04'0 0.0
2018-Jul-16 11:00N 32°05' W 081°04'0 0.0
2018-Jul-16 10:31N 32°05' W 081°04'0 0.0
2018-Jul-16 10:00N 32°05' W 081°04'0 0.0
2018-Jul-16 09:30N 32°05' W 081°04'0 0.0
2018-Jul-16 09:00N 32°05' W 081°04'0 0.0
2018-Jul-16 08:30N 32°05' W 081°04'0 0.0
2018-Jul-16 08:00N 32°05' W 081°04'0 0.0
2018-Jul-16 07:30N 32°05' W 081°04'0 0.0
2018-Jul-16 07:00N 32°05' W 081°04'0 0.0
2018-Jul-16 06:30N 32°05' W 081°04'0 0.0
2018-Jul-16 06:00N 32°05' W 081°04'0 0.0
2018-Jul-16 05:28N 32°05' W 081°04'0 0.0
2018-Jul-16 05:00N 32°05' W 081°04'0 0.0
2018-Jul-16 04:30N 32°05' W 081°04'0 0.0
2018-Jul-16 04:00N 32°05' W 081°04'0 0.0
2018-Jul-16 03:30N 32°05' W 081°04'0 0.0
2018-Jul-16 03:00N 32°05' W 081°04'0 0.0
2018-Jul-16 02:30N 32°05' W 081°04'0 0.0
2018-Jul-16 02:00N 32°05' W 081°04'0 0.0
2018-Jul-16 01:30N 32°05' W 081°04'0 0.0
2018-Jul-16 01:00N 32°05' W 081°04'0 0.0
2018-Jul-16 00:30N 32°05' W 081°04'2 3.3
2018-Jul-16 00:00N 32°05' W 081°06'3 6.9
2018-Jul-15 23:30N 32°08' W 081°08'0 0.1
2018-Jul-15 23:00N 32°08' W 081°08'0 0.5
2018-Jul-15 22:30N 32°08' W 081°08'2 4.4
2018-Jul-15 22:00N 32°06' W 081°07'2 3.2
2018-Jul-15 21:30N 32°05' W 081°05'1 2.0
2018-Jul-15 21:00N 32°05' W 081°04'0 0.0
2018-Jul-15 20:30N 32°05' W 081°04'0 0.0
2018-Jul-15 20:00N 32°05' W 081°04'0 0.0
2018-Jul-15 19:29N 32°05' W 081°04'0 0.0
2018-Jul-15 19:00N 32°05' W 081°04'0 0.0
2018-Jul-15 18:30N 32°05' W 081°04'0 0.0
2018-Jul-15 17:59N 32°05' W 081°04'4 7.9
2018-Jul-15 17:30N 32°07' W 081°08'2 3.3
2018-Jul-15 17:00N 32°08' W 081°09'0 0.0
2018-Jul-15 16:30N 32°08' W 081°09'1 2.6
2018-Jul-15 16:00N 32°07' W 081°08'2 4.7
2018-Jul-15 15:30N 32°05' W 081°06'3 5.4
2018-Jul-15 15:00N 32°05' W 081°03'0 0.1
2018-Jul-15 14:30N 32°05' W 081°03'1 1.4
2018-Jul-15 13:58N 32°05' W 081°04'0 0.0
2018-Jul-15 13:29N 32°05' W 081°04'0 0.0
2018-Jul-15 12:59N 32°05' W 081°04'0 0.0
2018-Jul-15 12:26N 32°05' W 081°04'0 0.0
2018-Jul-15 12:00N 32°05' W 081°04'0 0.0
2018-Jul-15 11:30N 32°05' W 081°04'0 0.0
2018-Jul-15 10:59N 32°05' W 081°04'0 0.0
2018-Jul-15 10:29N 32°05' W 081°04'0 0.0
2018-Jul-15 10:00N 32°05' W 081°04'0 0.0
2018-Jul-15 09:30N 32°05' W 081°04'0 0.0
2018-Jul-15 09:00N 32°05' W 081°04'0 0.0
2018-Jul-15 08:29N 32°05' W 081°04'0 0.0
2018-Jul-15 07:59N 32°05' W 081°04'0 0.0
2018-Jul-15 07:30N 32°05' W 081°04'0 0.0
2018-Jul-15 06:59N 32°05' W 081°04'0 0.0
2018-Jul-15 06:28N 32°05' W 081°04'4 8.8
2018-Jul-15 06:00N 32°07' W 081°08'1 1.1
2018-Jul-15 05:30N 32°08' W 081°08'0 0.5
2018-Jul-15 05:00N 32°07' W 081°08'0 0.0
2018-Jul-15 04:30N 32°07' W 081°08'0 0.0
2018-Jul-15 04:00N 32°07' W 081°08'0 0.0
2018-Jul-15 03:30N 32°07' W 081°08'0 0.0
2018-Jul-15 03:00N 32°07' W 081°08'0 0.0
2018-Jul-15 02:27N 32°07' W 081°08'0 0.8
2018-Jul-15 02:00N 32°08' W 081°08'0 0.9
2018-Jul-15 01:30N 32°07' W 081°08'0 0.2
2018-Jul-15 01:00N 32°07' W 081°08'0 0.0
2018-Jul-15 00:29N 32°07' W 081°08'1 1.4
2018-Jul-15 00:00N 32°08' W 081°08'0 0.4
2018-Jul-14 23:30N 32°08' W 081°08'0 0.0
2018-Jul-14 23:00N 32°08' W 081°08'1 1.1
2018-Jul-14 22:30N 32°08' W 081°09'0 0.1
2018-Jul-14 22:00N 32°08' W 081°09'4 7.5
2018-Jul-14 21:30N 32°05' W 081°06'2 3.5
2018-Jul-14 21:00N 32°05' W 081°04'0 0.0
2018-Jul-14 20:30N 32°05' W 081°04'0 0.0
2018-Jul-14 20:00N 32°05' W 081°04'0 0.0
2018-Jul-14 19:30N 32°05' W 081°04'0 0.0
2018-Jul-14 19:00N 32°05' W 081°04'0 0.0
2018-Jul-14 18:30N 32°05' W 081°04'0 0.0
2018-Jul-14 18:00N 32°05' W 081°04'0 0.0
2018-Jul-14 17:24N 32°05' W 081°04'0 0.0
2018-Jul-14 17:00N 32°05' W 081°04'0 0.0
2018-Jul-14 16:30N 32°05' W 081°04'0 0.0
2018-Jul-14 16:00N 32°05' W 081°04'0 0.0
2018-Jul-14 15:30N 32°05' W 081°04'0 0.0
2018-Jul-14 15:00N 32°05' W 081°04'0 0.0
2018-Jul-14 14:30N 32°05' W 081°04'0 0.0
2018-Jul-14 13:30N 32°05' W 081°04'0 0.0
2018-Jul-14 13:00N 32°05' W 081°04'0 0.0
2018-Jul-14 12:30N 32°05' W 081°04'0 0.0
2018-Jul-14 12:00N 32°05' W 081°04'3 6.1
2018-Jul-14 11:30N 32°06' W 081°07'2 4.5
2018-Jul-14 10:59N 32°08' W 081°09'0 0.6
2018-Jul-14 10:30N 32°08' W 081°08'0 0.4
2018-Jul-14 10:00N 32°08' W 081°09'1 1.3
2018-Jul-14 09:30N 32°08' W 081°08'3 5.2
2018-Jul-14 09:00N 32°06' W 081°06'1 1.4
2018-Jul-14 08:30N 32°05' W 081°06'3 5.7
2018-Jul-14 08:00N 32°07' W 081°08'0 0.0
2018-Jul-14 07:30N 32°07' W 081°08'0 0.0
2018-Jul-14 06:59N 32°07' W 081°08'0 0.0
2018-Jul-14 06:30N 32°07' W 081°08'0 0.0
2018-Jul-14 06:00N 32°07' W 081°08'0 0.0
2018-Jul-14 05:30N 32°07' W 081°08'0 0.0
2018-Jul-14 05:00N 32°07' W 081°08'0 0.2
2018-Jul-14 04:30N 32°07' W 081°08'0 0.0
2018-Jul-14 04:00N 32°07' W 081°08'2 3.6
2018-Jul-14 03:30N 32°06' W 081°07'3 5.0
2018-Jul-14 03:00N 32°05' W 081°04'0 0.0
2018-Jul-14 02:30N 32°05' W 081°04'0 0.0
2018-Jul-14 02:00N 32°05' W 081°04'0 0.0
2018-Jul-14 01:30N 32°05' W 081°04'0 0.0
2018-Jul-14 01:00N 32°05' W 081°04'0 0.0
2018-Jul-14 00:30N 32°05' W 081°04'0 0.0
2018-Jul-14 00:00N 32°05' W 081°04'0 0.0
2018-Jul-13 23:30N 32°05' W 081°04'1 2.2
2018-Jul-13 23:00N 32°05' W 081°05'4 7.6
2018-Jul-13 22:30N 32°08' W 081°08'0 0.4
2018-Jul-13 22:00N 32°08' W 081°08'3 6.0
2018-Jul-13 21:29N 32°05' W 081°06'2 4.0
2018-Jul-13 21:00N 32°05' W 081°04'0 0.0
2018-Jul-13 20:29N 32°05' W 081°04'0 0.0
2018-Jul-13 20:00N 32°05' W 081°04'0 0.0
2018-Jul-13 19:30N 32°05' W 081°04'0 0.0
2018-Jul-13 19:00N 32°05' W 081°04'0 0.0
2018-Jul-13 18:30N 32°05' W 081°04'0 0.0
2018-Jul-13 17:58N 32°05' W 081°04'0 0.0
2018-Jul-13 17:29N 32°05' W 081°04'0 0.0
2018-Jul-13 16:59N 32°05' W 081°04'0 0.0
2018-Jul-13 16:30N 32°05' W 081°04'1 2.5
2018-Jul-13 15:59N 32°05' W 081°05'4 8.8
2018-Jul-13 15:30N 32°08' W 081°09'1 1.2
2018-Jul-13 15:00N 32°08' W 081°08'4 4.4
2018-Jul-13 14:00N 32°05' W 081°04'1 1.0
2018-Jul-13 13:30N 32°05' W 081°04'0 0.0
2018-Jul-13 13:00N 32°05' W 081°04'0 0.0
2018-Jul-13 12:28N 32°05' W 081°04'1 2.2
2018-Jul-13 12:00N 32°05' W 081°05'4 7.4
2018-Jul-13 11:29N 32°08' W 081°08'1 1.1
2018-Jul-13 11:00N 32°08' W 081°09'0 0.0
2018-Jul-13 10:30N 32°08' W 081°09'1 2.5
2018-Jul-13 10:00N 32°07' W 081°08'2 3.4
2018-Jul-13 09:28N 32°06' W 081°06'0 0.0
2018-Jul-13 09:00N 32°06' W 081°06'0 0.0
2018-Jul-13 08:30N 32°06' W 081°06'0 0.0
2018-Jul-13 08:00N 32°06' W 081°06'0 0.0
2018-Jul-13 07:30N 32°06' W 081°06'0 0.0
2018-Jul-13 07:00N 32°06' W 081°06'2 3.8
2018-Jul-13 06:30N 32°05' W 081°04'1 1.7
2018-Jul-13 06:00N 32°05' W 081°03'3 5.5
2018-Jul-13 05:30N 32°06' W 081°06'2 4.3
2018-Jul-13 05:00N 32°07' W 081°08'1 2.3
2018-Jul-13 04:29N 32°08' W 081°09'0 0.2
2018-Jul-13 04:00N 32°08' W 081°09'1 2.6
2018-Jul-13 03:30N 32°07' W 081°08'1 1.7
2018-Jul-13 03:00N 32°08' W 081°08'2 3.9
2018-Jul-13 02:30N 32°06' W 081°07'1 2.0
2018-Jul-13 01:58N 32°06' W 081°06'0 0.0
2018-Jul-13 01:30N 32°06' W 081°06'0 0.0
2018-Jul-13 01:00N 32°06' W 081°06'2 4.7
2018-Jul-13 00:30N 32°07' W 081°08'0 0.6
2018-Jul-13 00:00N 32°07' W 081°08'0 0.0
2018-Jul-12 23:30N 32°07' W 081°08'4 7.7
2018-Jul-12 23:00N 32°05' W 081°04'0 0.9
2018-Jul-12 22:30N 32°05' W 081°04'0 0.0
2018-Jul-12 22:00N 32°05' W 081°04'0 0.0
2018-Jul-12 21:30N 32°05' W 081°04'0 0.0
2018-Jul-12 21:00N 32°05' W 081°04'0 0.0
2018-Jul-12 20:29N 32°05' W 081°04'0 0.0
2018-Jul-12 20:00N 32°05' W 081°04'0 0.0
2018-Jul-12 19:30N 32°05' W 081°04'0 0.0
2018-Jul-12 19:00N 32°05' W 081°04'0 0.0
2018-Jul-12 18:29N 32°05' W 081°04'0 0.0
2018-Jul-12 17:59N 32°05' W 081°04'0 0.0
2018-Jul-12 17:27N 32°05' W 081°04'0 0.0
2018-Jul-12 16:53N 32°05' W 081°04'2 4.7
2018-Jul-12 16:30N 32°05' W 081°06'  
Track history (hours):
 
Tides and Currents Weather Stations Pressure Air Temp Water Temp Dewpoint Dewpoint Depression Visibility Wind Speed Wind Dir Waves Ship Positions

Edward J. Moran

Owner: Moran Towing Corporation, New Canaan, CT. More information available from US FCC via Universal Licensing System and Coast Guard Vessel Documentation Center.

Last reported at 2018-Jul-22 16:29 UTC. Time now 2018-Jul-22 16:37 UTC.
Position N 32°05' W 081°04'.

; draft 5.4 m.

Type: Tug. MMSI: 367108030.

Date/timePositionNaut miles runAvg speedWind from/ knotsBaromVisibWave heightAir tempDewpointWater temp
2018-Jul-22 16:29N 32°05' W 081°04'0 0.0
2018-Jul-22 16:00N 32°05' W 081°04'4 4.2
2018-Jul-22 15:00N 32°07' W 081°08'1 1.7
2018-Jul-22 14:30N 32°08' W 081°08'1 2.7
2018-Jul-22 14:00N 32°07' W 081°08'2 5.1
2018-Jul-22 13:30N 32°05' W 081°06'1 2.9
2018-Jul-22 13:00N 32°05' W 081°04'0 0.0
2018-Jul-22 12:30N 32°05' W 081°04'0 0.0
2018-Jul-22 12:00N 32°05' W 081°04'4 8.6
2018-Jul-22 11:30N 32°07' W 081°08'1 1.9
2018-Jul-22 11:00N 32°08' W 081°09'0 0.2
2018-Jul-22 10:30N 32°08' W 081°08'1 2.4
2018-Jul-22 10:00N 32°07' W 081°08'2 4.5
2018-Jul-22 09:30N 32°05' W 081°06'3 5.6
2018-Jul-22 09:00N 32°05' W 081°03'3 6.7
2018-Jul-22 08:30N 32°05' W 080°59'1 2.4
2018-Jul-22 08:00N 32°06' W 080°60'4 7.6
2018-Jul-22 07:30N 32°05' W 081°04'0 0.4
2018-Jul-22 07:00N 32°05' W 081°04'0 0.0
2018-Jul-22 06:30N 32°05' W 081°04'0 0.0
2018-Jul-22 06:00N 32°05' W 081°04'0 0.0
2018-Jul-22 05:30N 32°05' W 081°04'0 0.0
2018-Jul-22 04:59N 32°05' W 081°04'0 0.0
2018-Jul-22 04:29N 32°05' W 081°04'0 0.0
2018-Jul-22 04:00N 32°05' W 081°04'0 0.0
2018-Jul-22 03:30N 32°05' W 081°04'0 0.0
2018-Jul-22 03:00N 32°05' W 081°04'0 0.0
2018-Jul-22 02:30N 32°05' W 081°04'0 0.0
2018-Jul-22 01:59N 32°05' W 081°04'0 0.0
2018-Jul-22 01:30N 32°05' W 081°04'0 0.0
2018-Jul-22 01:00N 32°05' W 081°04'0 0.0
2018-Jul-22 00:30N 32°05' W 081°04'4 8.2
2018-Jul-22 00:00N 32°07' W 081°08'1 2.7
2018-Jul-21 23:30N 32°08' W 081°09'0 0.6
2018-Jul-21 23:00N 32°08' W 081°08'1 2.4
2018-Jul-21 22:30N 32°07' W 081°08'3 4.8
2018-Jul-21 21:59N 32°05' W 081°06'2 3.6
2018-Jul-21 21:30N 32°05' W 081°04'0 0.0
2018-Jul-21 20:59N 32°05' W 081°04'0 0.8
2018-Jul-21 20:30N 32°05' W 081°04'2 4.2
2018-Jul-21 20:00N 32°06' W 081°06'2 3.3
2018-Jul-21 19:30N 32°07' W 081°08'1 2.7
2018-Jul-21 19:00N 32°08' W 081°09'0 0.5
2018-Jul-21 18:28N 32°08' W 081°09'1 3.0
2018-Jul-21 18:00N 32°07' W 081°08'4 8.3
2018-Jul-21 17:30N 32°05' W 081°04'0 0.4
2018-Jul-21 16:56N 32°05' W 081°04'0 0.0
2018-Jul-21 16:30N 32°05' W 081°04'0 0.0
2018-Jul-21 16:00N 32°05' W 081°04'0 0.0
2018-Jul-21 15:30N 32°05' W 081°04'0 0.0
2018-Jul-21 15:00N 32°05' W 081°04'0 0.0
2018-Jul-21 14:30N 32°05' W 081°04'0 0.0
2018-Jul-21 13:30N 32°05' W 081°04'0 0.0
2018-Jul-21 13:00N 32°05' W 081°04'0 0.0
2018-Jul-21 12:30N 32°05' W 081°04'3 5.4
2018-Jul-21 12:00N 32°06' W 081°07'2 4.7
2018-Jul-21 11:30N 32°08' W 081°08'1 1.4
2018-Jul-21 11:00N 32°07' W 081°08'0 0.1
2018-Jul-21 10:29N 32°07' W 081°08'0 0.0
2018-Jul-21 10:00N 32°07' W 081°08'0 0.0
2018-Jul-21 09:30N 32°07' W 081°08'0 0.0
2018-Jul-21 09:00N 32°07' W 081°08'0 0.0
2018-Jul-21 08:30N 32°07' W 081°08'0 0.9
2018-Jul-21 08:00N 32°07' W 081°08'0 0.8
2018-Jul-21 07:30N 32°07' W 081°08'0 0.3
2018-Jul-21 06:59N 32°07' W 081°08'0 0.0
2018-Jul-21 06:30N 32°07' W 081°08'0 0.0
2018-Jul-21 06:00N 32°07' W 081°08'0 0.0
2018-Jul-21 05:30N 32°07' W 081°08'0 0.0
2018-Jul-21 05:00N 32°07' W 081°08'0 0.0
2018-Jul-21 04:30N 32°07' W 081°08'0 0.0
2018-Jul-21 04:00N 32°07' W 081°08'0 0.0
2018-Jul-21 03:30N 32°07' W 081°08'1 1.1
2018-Jul-21 03:00N 32°08' W 081°08'0 0.1
2018-Jul-21 02:30N 32°08' W 081°08'0 0.4
2018-Jul-21 02:00N 32°08' W 081°08'1 2.9
2018-Jul-21 01:30N 32°06' W 081°07'3 5.8
2018-Jul-21 01:00N 32°05' W 081°04'0 0.6
2018-Jul-21 00:29N 32°05' W 081°04'0 0.0
2018-Jul-21 00:00N 32°05' W 081°04'0 0.0
2018-Jul-20 23:30N 32°05' W 081°04'0 0.0
2018-Jul-20 22:58N 32°05' W 081°04'0 0.0
2018-Jul-20 22:28N 32°05' W 081°04'2 4.2
2018-Jul-20 22:00N 32°05' W 081°06'3 5.5
2018-Jul-20 21:30N 32°08' W 081°08'1 1.7
2018-Jul-20 21:00N 32°07' W 081°08'3 7.0
2018-Jul-20 20:30N 32°05' W 081°04'0 0.6
2018-Jul-20 20:00N 32°05' W 081°04'0 0.0
2018-Jul-20 19:30N 32°05' W 081°04'0 0.0
2018-Jul-20 19:00N 32°05' W 081°04'0 0.0
2018-Jul-20 18:30N 32°05' W 081°04'0 0.0
2018-Jul-20 18:00N 32°05' W 081°04'0 0.0
2018-Jul-20 17:30N 32°05' W 081°04'0 0.0
2018-Jul-20 16:51N 32°05' W 081°04'0 0.0
2018-Jul-20 16:30N 32°05' W 081°04'0 0.0
2018-Jul-20 16:00N 32°05' W 081°04'0 0.0
2018-Jul-20 15:30N 32°05' W 081°04'0 0.0
2018-Jul-20 15:00N 32°05' W 081°04'0 0.0
2018-Jul-20 14:30N 32°05' W 081°04'0 0.0
2018-Jul-20 14:00N 32°05' W 081°04'0 0.0
2018-Jul-20 13:30N 32°05' W 081°04'0 0.0
2018-Jul-20 13:00N 32°05' W 081°04'0 0.0
2018-Jul-20 12:30N 32°05' W 081°04'0 0.0
2018-Jul-20 12:00N 32°05' W 081°04'0 0.0
2018-Jul-20 11:30N 32°05' W 081°04'0 0.0
2018-Jul-20 11:00N 32°05' W 081°04'0 0.0
2018-Jul-20 10:28N 32°05' W 081°04'0 0.0
2018-Jul-20 09:59N 32°05' W 081°04'0 0.0
2018-Jul-20 09:30N 32°05' W 081°04'0 0.0
2018-Jul-20 08:57N 32°05' W 081°04'0 0.0
2018-Jul-20 08:30N 32°05' W 081°04'0 0.0
2018-Jul-20 08:00N 32°05' W 081°04'0 0.0
2018-Jul-20 07:30N 32°05' W 081°04'0 0.0
2018-Jul-20 07:00N 32°05' W 081°04'0 0.0
2018-Jul-20 06:30N 32°05' W 081°04'0 0.0
2018-Jul-20 06:00N 32°05' W 081°04'0 0.0
2018-Jul-20 05:30N 32°05' W 081°04'0 0.0
2018-Jul-20 04:56N 32°05' W 081°04'0 0.0
2018-Jul-20 04:28N 32°05' W 081°04'0 0.0
2018-Jul-20 04:00N 32°05' W 081°04'0 0.0
2018-Jul-20 03:30N 32°05' W 081°04'0 0.0
2018-Jul-20 03:00N 32°05' W 081°04'0 0.0
2018-Jul-20 02:30N 32°05' W 081°04'0 0.0
2018-Jul-20 02:00N 32°05' W 081°04'0 0.0
2018-Jul-20 01:30N 32°05' W 081°04'0 0.0
2018-Jul-20 01:00N 32°05' W 081°04'0 0.0
2018-Jul-20 00:29N 32°05' W 081°04'0 0.0
2018-Jul-19 13:52N 32°05' W 081°04'0 0.0
2018-Jul-19 13:30N 32°05' W 081°04'0 0.0
2018-Jul-19 13:00N 32°05' W 081°04'0 0.0
2018-Jul-19 12:30N 32°05' W 081°04'0 0.0
2018-Jul-19 12:00N 32°05' W 081°04'0 0.0
2018-Jul-19 11:30N 32°05' W 081°04'0 0.3
2018-Jul-19 11:00N 32°05' W 081°04'1 2.8
2018-Jul-19 10:30N 32°05' W 081°05'2 4.4
2018-Jul-19 10:01N 32°07' W 081°07'2 4.3
2018-Jul-19 09:30N 32°08' W 081°09'0 0.1
2018-Jul-19 09:00N 32°08' W 081°09'3 5.5
2018-Jul-19 08:30N 32°06' W 081°07'3 5.6
2018-Jul-19 08:00N 32°05' W 081°04'0 0.4
2018-Jul-19 07:30N 32°05' W 081°04'0 0.0
2018-Jul-19 07:00N 32°05' W 081°04'0 0.0
2018-Jul-19 06:30N 32°05' W 081°04'0 0.0
2018-Jul-19 06:00N 32°05' W 081°04'0 0.0
2018-Jul-19 05:30N 32°05' W 081°04'0 0.0
2018-Jul-19 05:00N 32°05' W 081°04'0 0.0
2018-Jul-19 04:30N 32°05' W 081°04'0 0.0
2018-Jul-19 04:00N 32°05' W 081°04'0 0.0
2018-Jul-19 03:30N 32°05' W 081°04'0 0.0
2018-Jul-19 03:00N 32°05' W 081°04'0 0.0
2018-Jul-19 02:30N 32°05' W 081°04'0 0.0
2018-Jul-19 02:00N 32°05' W 081°04'0 0.0
2018-Jul-19 01:30N 32°05' W 081°04'0 0.0
2018-Jul-19 01:00N 32°05' W 081°04'0 0.0
2018-Jul-19 00:30N 32°05' W 081°04'0 0.0
2018-Jul-19 00:00N 32°05' W 081°04'0 0.0
2018-Jul-18 23:30N 32°05' W 081°04'0 0.0
2018-Jul-18 23:00N 32°05' W 081°04'0 0.0
2018-Jul-18 22:30N 32°05' W 081°04'0 0.0
2018-Jul-18 22:00N 32°05' W 081°04'0 0.0
2018-Jul-18 21:30N 32°05' W 081°04'0 0.0
2018-Jul-18 21:00N 32°05' W 081°04'0 0.0
2018-Jul-18 20:30N 32°05' W 081°04'1 1.8
2018-Jul-18 20:00N 32°05' W 081°05'4 8.4
2018-Jul-18 19:30N 32°08' W 081°08'0 0.5
2018-Jul-18 19:00N 32°08' W 081°09'1 1.4
2018-Jul-18 18:30N 32°07' W 081°08'2 4.1
2018-Jul-18 18:00N 32°06' W 081°07'1 1.8
2018-Jul-18 17:30N 32°05' W 081°06'0 0.0
2018-Jul-18 17:00N 32°05' W 081°06'0 0.0
2018-Jul-18 16:30N 32°05' W 081°06'0 0.0
2018-Jul-18 16:00N 32°05' W 081°06'1 1.3
2018-Jul-18 15:30N 32°06' W 081°06'2 4.3
2018-Jul-18 15:00N 32°07' W 081°08'0 0.0
2018-Jul-18 14:30N 32°07' W 081°08'0 0.2
2018-Jul-18 13:30N 32°07' W 081°08'0 0.0
2018-Jul-18 13:00N 32°07' W 081°08'0 0.0
2018-Jul-18 12:29N 32°07' W 081°08'1 1.2
2018-Jul-18 12:00N 32°08' W 081°08'0 0.1
2018-Jul-18 11:30N 32°08' W 081°08'0 0.2
2018-Jul-18 10:26N 32°08' W 081°08'0 0.1
2018-Jul-18 10:00N 32°08' W 081°08'0 0.7
2018-Jul-18 09:30N 32°08' W 081°08'2 3.5
2018-Jul-18 09:00N 32°06' W 081°07'1 2.1
2018-Jul-18 08:30N 32°05' W 081°06'0 0.0
2018-Jul-18 08:00N 32°05' W 081°06'1 2.7
2018-Jul-18 07:30N 32°06' W 081°07'1 2.8
2018-Jul-18 07:00N 32°05' W 081°06'1 2.9
2018-Jul-18 06:30N 32°05' W 081°04'0 0.9
2018-Jul-18 05:56N 32°05' W 081°04'0 0.0
2018-Jul-18 05:25N 32°05' W 081°04'0 0.0
2018-Jul-18 05:00N 32°05' W 081°04'0 0.0
2018-Jul-18 04:27N 32°05' W 081°04'0 0.0
2018-Jul-18 03:57N 32°05' W 081°04'0 0.0
2018-Jul-18 03:30N 32°05' W 081°04'0 0.0
2018-Jul-18 03:00N 32°05' W 081°04'0 0.0
2018-Jul-18 02:30N 32°05' W 081°04'0 0.0
2018-Jul-18 02:00N 32°05' W 081°04'0 0.0
2018-Jul-18 01:30N 32°05' W 081°04'0 0.0
2018-Jul-18 01:00N 32°05' W 081°04'0 0.0
2018-Jul-18 00:27N 32°05' W 081°04'0 0.0
2018-Jul-18 00:00N 32°05' W 081°04'0 0.0
2018-Jul-17 23:29N 32°05' W 081°04'0 0.0
2018-Jul-17 23:00N 32°05' W 081°04'0 0.0
2018-Jul-17 22:26N 32°05' W 081°04'0 0.0
2018-Jul-17 22:00N 32°05' W 081°04'0 0.0
2018-Jul-17 21:30N 32°05' W 081°04'0 0.0
2018-Jul-17 20:57N 32°05' W 081°04'0 0.0
2018-Jul-17 20:30N 32°05' W 081°04'0 0.0
2018-Jul-17 20:00N 32°05' W 081°04'2 4.3
2018-Jul-17 19:30N 32°06' W 081°06'3 6.6
2018-Jul-17 19:00N 32°08' W 081°09'0 0.1
2018-Jul-17 18:30N 32°08' W 081°09'1 1.7
2018-Jul-17 18:00N 32°08' W 081°08'2 4.3
2018-Jul-17 17:30N 32°06' W 081°07'1 2.0
2018-Jul-17 17:00N 32°07' W 081°07'1 1.7
2018-Jul-17 16:30N 32°07' W 081°08'0 1.0
2018-Jul-17 16:00N 32°08' W 081°08'1 1.8
2018-Jul-17 15:30N 32°07' W 081°08'2 4.7
2018-Jul-17 14:59N 32°05' W 081°06'2 3.3
2018-Jul-17 14:30N 32°05' W 081°04'0 0.0
2018-Jul-17 14:00N 32°05' W 081°04'0 0.0
2018-Jul-17 13:30N 32°05' W 081°04'0 0.0
2018-Jul-17 13:00N 32°05' W 081°04'0 0.0
2018-Jul-17 12:30N 32°05' W 081°04'0 0.0
2018-Jul-17 12:00N 32°05' W 081°04'0 0.0
2018-Jul-17 11:30N 32°05' W 081°04'3 5.2
2018-Jul-17 11:00N 32°06' W 081°07'2 3.9
2018-Jul-17 10:30N 32°07' W 081°08'0 0.8
2018-Jul-17 10:00N 32°07' W 081°08'1 2.0
2018-Jul-17 09:29N 32°06' W 081°07'0 0.7
2018-Jul-17 09:00N 32°06' W 081°07'1 1.8
2018-Jul-17 08:30N 32°05' W 081°06'2 3.9
2018-Jul-17 08:00N 32°05' W 081°04'0 0.0
2018-Jul-17 07:24N 32°05' W 081°04'0 0.0
2018-Jul-17 07:00N 32°05' W 081°04'0 0.0
2018-Jul-17 06:30N 32°05' W 081°04'0 0.0
2018-Jul-17 06:00N 32°05' W 081°04'0 0.0
2018-Jul-17 05:30N 32°05' W 081°04'0 0.0
2018-Jul-17 04:55N 32°05' W 081°04'0 0.0
2018-Jul-17 04:30N 32°05' W 081°04'0 0.0
2018-Jul-17 04:00N 32°05' W 081°04'0 0.0
2018-Jul-17 03:30N 32°05' W 081°04'0 0.0
2018-Jul-17 03:00N 32°05' W 081°04'0 0.0
2018-Jul-17 02:30N 32°05' W 081°04'0 0.0
2018-Jul-17 01:59N 32°05' W 081°04'0 0.0
2018-Jul-17 01:29N 32°05' W 081°04'0 0.0
2018-Jul-17 01:00N 32°05' W 081°04'0 0.0
2018-Jul-17 00:30N 32°05' W 081°04'0 0.0
2018-Jul-16 23:30N 32°05' W 081°04'0 0.0
2018-Jul-16 23:00N 32°05' W 081°04'0 0.0
2018-Jul-16 22:28N 32°05' W 081°04'0 0.0
2018-Jul-16 22:00N 32°05' W 081°04'0 0.0
2018-Jul-16 21:31N 32°05' W 081°04'4 8.5
2018-Jul-16 21:00N 32°07' W 081°08'0 0.4
2018-Jul-16 20:28N 32°07' W 081°08'1 2.9
2018-Jul-16 19:59N 32°06' W 081°07'1 2.1
2018-Jul-16 19:30N 32°07' W 081°08'1 1.5
2018-Jul-16 19:00N 32°07' W 081°08'0 0.4
2018-Jul-16 18:30N 32°08' W 081°08'0 0.1
2018-Jul-16 18:00N 32°08' W 081°08'1 1.7
2018-Jul-16 17:30N 32°07' W 081°08'2 4.2
2018-Jul-16 17:00N 32°05' W 081°06'2 2.7
2018-Jul-16 16:20N 32°05' W 081°04'0 0.0
2018-Jul-16 15:54N 32°05' W 081°04'0 0.0
2018-Jul-16 15:30N 32°05' W 081°04'1 1.4
2018-Jul-16 15:00N 32°05' W 081°05'3 5.4
2018-Jul-16 14:30N 32°06' W 081°07'2 3.6
2018-Jul-16 14:00N 32°08' W 081°08'1 1.1
2018-Jul-16 13:30N 32°08' W 081°09'0 0.0
2018-Jul-16 13:00N 32°08' W 081°09'4 8.4
2018-Jul-16 12:30N 32°05' W 081°06'1 3.0
2018-Jul-16 12:00N 32°05' W 081°04'0 0.0
2018-Jul-16 11:30N 32°05' W 081°04'0 0.0
2018-Jul-16 11:00N 32°05' W 081°04'0 0.0
2018-Jul-16 10:31N 32°05' W 081°04'0 0.0
2018-Jul-16 10:00N 32°05' W 081°04'0 0.0
2018-Jul-16 09:30N 32°05' W 081°04'0 0.0
2018-Jul-16 09:00N 32°05' W 081°04'0 0.0
2018-Jul-16 08:30N 32°05' W 081°04'0 0.0
2018-Jul-16 08:00N 32°05' W 081°04'0 0.0
2018-Jul-16 07:30N 32°05' W 081°04'0 0.0
2018-Jul-16 07:00N 32°05' W 081°04'0 0.0
2018-Jul-16 06:30N 32°05' W 081°04'0 0.0
2018-Jul-16 06:00N 32°05' W 081°04'0 0.0
2018-Jul-16 05:28N 32°05' W 081°04'0 0.0
2018-Jul-16 05:00N 32°05' W 081°04'0 0.0
2018-Jul-16 04:30N 32°05' W 081°04'0 0.0
2018-Jul-16 04:00N 32°05' W 081°04'0 0.0
2018-Jul-16 03:30N 32°05' W 081°04'0 0.0
2018-Jul-16 03:00N 32°05' W 081°04'0 0.0
2018-Jul-16 02:30N 32°05' W 081°04'0 0.0
2018-Jul-16 02:00N 32°05' W 081°04'0 0.0
2018-Jul-16 01:30N 32°05' W 081°04'0 0.0
2018-Jul-16 01:00N 32°05' W 081°04'0 0.0
2018-Jul-16 00:30N 32°05' W 081°04'2 3.3
2018-Jul-16 00:00N 32°05' W 081°06'3 6.9
2018-Jul-15 23:30N 32°08' W 081°08'0 0.1
2018-Jul-15 23:00N 32°08' W 081°08'0 0.5
2018-Jul-15 22:30N 32°08' W 081°08'2 4.4
2018-Jul-15 22:00N 32°06' W 081°07'2 3.2
2018-Jul-15 21:30N 32°05' W 081°05'1 2.0
2018-Jul-15 21:00N 32°05' W 081°04'0 0.0
2018-Jul-15 20:30N 32°05' W 081°04'0 0.0
2018-Jul-15 20:00N 32°05' W 081°04'0 0.0
2018-Jul-15 19:29N 32°05' W 081°04'0 0.0
2018-Jul-15 19:00N 32°05' W 081°04'0 0.0
2018-Jul-15 18:30N 32°05' W 081°04'0 0.0
2018-Jul-15 17:59N 32°05' W 081°04'4 7.9
2018-Jul-15 17:30N 32°07' W 081°08'2 3.3
2018-Jul-15 17:00N 32°08' W 081°09'0 0.0
2018-Jul-15 16:30N 32°08' W 081°09'1 2.6
2018-Jul-15 16:00N 32°07' W 081°08'2 4.7
2018-Jul-15 15:30N 32°05' W 081°06'3 5.4
2018-Jul-15 15:00N 32°05' W 081°03'0 0.1
2018-Jul-15 14:30N 32°05' W 081°03'1 1.4
2018-Jul-15 13:58N 32°05' W 081°04'0 0.0
2018-Jul-15 13:29N 32°05' W 081°04'0 0.0
2018-Jul-15 12:59N 32°05' W 081°04'0 0.0
2018-Jul-15 12:26N 32°05' W 081°04'0 0.0
2018-Jul-15 12:00N 32°05' W 081°04'0 0.0
2018-Jul-15 11:30N 32°05' W 081°04'0 0.0
2018-Jul-15 10:59N 32°05' W 081°04'0 0.0
2018-Jul-15 10:29N 32°05' W 081°04'0 0.0
2018-Jul-15 10:00N 32°05' W 081°04'0 0.0
2018-Jul-15 09:30N 32°05' W 081°04'0 0.0
2018-Jul-15 09:00N 32°05' W 081°04'0 0.0
2018-Jul-15 08:29N 32°05' W 081°04'0 0.0
2018-Jul-15 07:59N 32°05' W 081°04'0 0.0
2018-Jul-15 07:30N 32°05' W 081°04'0 0.0
2018-Jul-15 06:59N 32°05' W 081°04'0 0.0
2018-Jul-15 06:28N 32°05' W 081°04'4 8.8
2018-Jul-15 06:00N 32°07' W 081°08'1 1.1
2018-Jul-15 05:30N 32°08' W 081°08'0 0.5
2018-Jul-15 05:00N 32°07' W 081°08'0 0.0
2018-Jul-15 04:30N 32°07' W 081°08'0 0.0
2018-Jul-15 04:00N 32°07' W 081°08'0 0.0
2018-Jul-15 03:30N 32°07' W 081°08'0 0.0
2018-Jul-15 03:00N 32°07' W 081°08'0 0.0
2018-Jul-15 02:27N 32°07' W 081°08'0 0.8
2018-Jul-15 02:00N 32°08' W 081°08'0 0.9
2018-Jul-15 01:30N 32°07' W 081°08'0 0.2
2018-Jul-15 01:00N 32°07' W 081°08'0 0.0
2018-Jul-15 00:29N 32°07' W 081°08'1 1.4
2018-Jul-15 00:00N 32°08' W 081°08'0 0.4
2018-Jul-14 23:30N 32°08' W 081°08'0 0.0
2018-Jul-14 23:00N 32°08' W 081°08'1 1.1
2018-Jul-14 22:30N 32°08' W 081°09'0 0.1
2018-Jul-14 22:00N 32°08' W 081°09'4 7.5
2018-Jul-14 21:30N 32°05' W 081°06'2 3.5
2018-Jul-14 21:00N 32°05' W 081°04'0 0.0
2018-Jul-14 20:30N 32°05' W 081°04'0 0.0
2018-Jul-14 20:00N 32°05' W 081°04'0 0.0
2018-Jul-14 19:30N 32°05' W 081°04'0 0.0
2018-Jul-14 19:00N 32°05' W 081°04'0 0.0
2018-Jul-14 18:30N 32°05' W 081°04'0 0.0
2018-Jul-14 18:00N 32°05' W 081°04'0 0.0
2018-Jul-14 17:24N 32°05' W 081°04'0 0.0
2018-Jul-14 17:00N 32°05' W 081°04'0 0.0
2018-Jul-14 16:30N 32°05' W 081°04'0 0.0
2018-Jul-14 16:00N 32°05' W 081°04'0 0.0
2018-Jul-14 15:30N 32°05' W 081°04'0 0.0
2018-Jul-14 15:00N 32°05' W 081°04'0 0.0
2018-Jul-14 14:30N 32°05' W 081°04'0 0.0
2018-Jul-14 13:30N 32°05' W 081°04'0 0.0
2018-Jul-14 13:00N 32°05' W 081°04'0 0.0
2018-Jul-14 12:30N 32°05' W 081°04'0 0.0
2018-Jul-14 12:00N 32°05' W 081°04'3 6.1
2018-Jul-14 11:30N 32°06' W 081°07'2 4.5
2018-Jul-14 10:59N 32°08' W 081°09'0 0.6
2018-Jul-14 10:30N 32°08' W 081°08'0 0.4
2018-Jul-14 10:00N 32°08' W 081°09'1 1.3
2018-Jul-14 09:30N 32°08' W 081°08'3 5.2
2018-Jul-14 09:00N 32°06' W 081°06'1 1.4
2018-Jul-14 08:30N 32°05' W 081°06'3 5.7
2018-Jul-14 08:00N 32°07' W 081°08'0 0.0
2018-Jul-14 07:30N 32°07' W 081°08'0 0.0
2018-Jul-14 06:59N 32°07' W 081°08'0 0.0
2018-Jul-14 06:30N 32°07' W 081°08'0 0.0
2018-Jul-14 06:00N 32°07' W 081°08'0 0.0
2018-Jul-14 05:30N 32°07' W 081°08'0 0.0
2018-Jul-14 05:00N 32°07' W 081°08'0 0.2
2018-Jul-14 04:30N 32°07' W 081°08'0 0.0
2018-Jul-14 04:00N 32°07' W 081°08'2 3.6
2018-Jul-14 03:30N 32°06' W 081°07'3 5.0
2018-Jul-14 03:00N 32°05' W 081°04'0 0.0
2018-Jul-14 02:30N 32°05' W 081°04'0 0.0
2018-Jul-14 02:00N 32°05' W 081°04'0 0.0
2018-Jul-14 01:30N 32°05' W 081°04'0 0.0
2018-Jul-14 01:00N 32°05' W 081°04'0 0.0
2018-Jul-14 00:30N 32°05' W 081°04'0 0.0
2018-Jul-14 00:00N 32°05' W 081°04'0 0.0
2018-Jul-13 23:30N 32°05' W 081°04'1 2.2
2018-Jul-13 23:00N 32°05' W 081°05'4 7.6
2018-Jul-13 22:30N 32°08' W 081°08'0 0.4
2018-Jul-13 22:00N 32°08' W 081°08'3 6.0
2018-Jul-13 21:29N 32°05' W 081°06'2 4.0
2018-Jul-13 21:00N 32°05' W 081°04'0 0.0
2018-Jul-13 20:29N 32°05' W 081°04'0 0.0
2018-Jul-13 20:00N 32°05' W 081°04'0 0.0
2018-Jul-13 19:30N 32°05' W 081°04'0 0.0
2018-Jul-13 19:00N 32°05' W 081°04'0 0.0
2018-Jul-13 18:30N 32°05' W 081°04'0 0.0
2018-Jul-13 17:58N 32°05' W 081°04'0 0.0
2018-Jul-13 17:29N 32°05' W 081°04'0 0.0
2018-Jul-13 16:59N 32°05' W 081°04'0 0.0
2018-Jul-13 16:30N 32°05' W 081°04'1 2.5
2018-Jul-13 15:59N 32°05' W 081°05'4 8.8
2018-Jul-13 15:30N 32°08' W 081°09'1 1.2
2018-Jul-13 15:00N 32°08' W 081°08'4 4.4
2018-Jul-13 14:00N 32°05' W 081°04'1 1.0
2018-Jul-13 13:30N 32°05' W 081°04'0 0.0
2018-Jul-13 13:00N 32°05' W 081°04'0 0.0
2018-Jul-13 12:28N 32°05' W 081°04'1 2.2
2018-Jul-13 12:00N 32°05' W 081°05'4 7.4
2018-Jul-13 11:29N 32°08' W 081°08'1 1.1
2018-Jul-13 11:00N 32°08' W 081°09'0 0.0
2018-Jul-13 10:30N 32°08' W 081°09'1 2.5
2018-Jul-13 10:00N 32°07' W 081°08'2 3.4
2018-Jul-13 09:28N 32°06' W 081°06'0 0.0
2018-Jul-13 09:00N 32°06' W 081°06'0 0.0
2018-Jul-13 08:30N 32°06' W 081°06'0 0.0
2018-Jul-13 08:00N 32°06' W 081°06'0 0.0
2018-Jul-13 07:30N 32°06' W 081°06'0 0.0
2018-Jul-13 07:00N 32°06' W 081°06'2 3.8
2018-Jul-13 06:30N 32°05' W 081°04'1 1.7
2018-Jul-13 06:00N 32°05' W 081°03'3 5.5
2018-Jul-13 05:30N 32°06' W 081°06'2 4.3
2018-Jul-13 05:00N 32°07' W 081°08'1 2.3
2018-Jul-13 04:29N 32°08' W 081°09'0 0.2
2018-Jul-13 04:00N 32°08' W 081°09'1 2.6
2018-Jul-13 03:30N 32°07' W 081°08'1 1.7
2018-Jul-13 03:00N 32°08' W 081°08'2 3.9
2018-Jul-13 02:30N 32°06' W 081°07'1 2.0
2018-Jul-13 01:58N 32°06' W 081°06'0 0.0
2018-Jul-13 01:30N 32°06' W 081°06'0 0.0
2018-Jul-13 01:00N 32°06' W 081°06'2 4.7
2018-Jul-13 00:30N 32°07' W 081°08'0 0.6
2018-Jul-13 00:00N 32°07' W 081°08'0 0.0
2018-Jul-12 23:30N 32°07' W 081°08'4 7.7
2018-Jul-12 23:00N 32°05' W 081°04'0 0.9
2018-Jul-12 22:30N 32°05' W 081°04'0 0.0
2018-Jul-12 22:00N 32°05' W 081°04'0 0.0
2018-Jul-12 21:30N 32°05' W 081°04'0 0.0
2018-Jul-12 21:00N 32°05' W 081°04'0 0.0
2018-Jul-12 20:29N 32°05' W 081°04'0 0.0
2018-Jul-12 20:00N 32°05' W 081°04'0 0.0
2018-Jul-12 19:30N 32°05' W 081°04'0 0.0
2018-Jul-12 19:00N 32°05' W 081°04'0 0.0
2018-Jul-12 18:29N 32°05' W 081°04'0 0.0
2018-Jul-12 17:59N 32°05' W 081°04'0 0.0
2018-Jul-12 17:27N 32°05' W 081°04'0 0.0
2018-Jul-12 16:53N 32°05' W 081°04'2 4.7
2018-Jul-12 16:30N 32°05' W 081°06'  

Dump ship's entire track history